Maribel — LAGU6 — position and weather

sailwx.info

Track history (hours):
 
Tides and Currents Weather Stations Pressure Air Temp Water Temp Dewpoint Dewpoint Depression Visibility Wind Speed Wind Dir Waves Ship Positions

Maribel

Last reported at 2016-Aug-13 07:05 UTC. Time now 2016-Aug-30 04:56 UTC.
Position S 34°04' E 018°11'.
Warning: this ship's position is 16 days out of date.

Length 228 m; draft 8.5 m.

Type: Ship. MMSI: 257872000.

Date/timePositionNaut miles runAvg speedWind from/ knotsBaromVisibWave heightAir tempDewpointWater temp
2016-Aug-13 07:05S 34°04' E 018°11'712.3
2016-Aug-13 06:33S 33°58' E 018°14'6 6.0
2016-Aug-13 05:33S 33°52' E 018°17'9 8.7
2016-Aug-13 04:33S 33°45' E 018°11'1010.2
2016-Aug-13 03:33S 33°37' E 018°03'1010.2
2016-Aug-13 02:33S 33°29' E 017°55'1010.1
2016-Aug-13 01:32S 33°20' E 017°51'299 9.9
2016-Aug-11 19:16S 28°48' E 015°24'710.1
2016-Aug-11 18:33S 28°42' E 015°20'1310.1
2016-Aug-11 17:16S 28°30' E 015°14'710.4
2016-Aug-11 16:33S 28°23' E 015°11'10210.2
2016-Aug-11 06:33S 26°51' E 014°23'10 9.6
2016-Aug-11 05:33S 26°42' E 014°18'48 9.5
2016-Aug-11 00:26S 25°58' E 013°56'  
Track history (hours):
 
Tides and Currents Weather Stations Pressure Air Temp Water Temp Dewpoint Dewpoint Depression Visibility Wind Speed Wind Dir Waves Ship Positions

Maribel

Last reported at 2016-Aug-13 07:05 UTC. Time now 2016-Aug-30 04:56 UTC.
Position S 34°04' E 018°11'.
Warning: this ship's position is 16 days out of date.

Length 228 m; draft 8.5 m.

Type: Ship. MMSI: 257872000.

Date/timePositionNaut miles runAvg speedWind from/ knotsBaromVisibWave heightAir tempDewpointWater temp
2016-Aug-13 07:05S 34°04' E 018°11'712.3
2016-Aug-13 06:33S 33°58' E 018°14'6 6.0
2016-Aug-13 05:33S 33°52' E 018°17'9 8.7
2016-Aug-13 04:33S 33°45' E 018°11'1010.2
2016-Aug-13 03:33S 33°37' E 018°03'1010.2
2016-Aug-13 02:33S 33°29' E 017°55'1010.1
2016-Aug-13 01:32S 33°20' E 017°51'299 9.9
2016-Aug-11 19:16S 28°48' E 015°24'710.1
2016-Aug-11 18:33S 28°42' E 015°20'1310.1
2016-Aug-11 17:16S 28°30' E 015°14'710.4
2016-Aug-11 16:33S 28°23' E 015°11'10210.2
2016-Aug-11 06:33S 26°51' E 014°23'10 9.6
2016-Aug-11 05:33S 26°42' E 014°18'48 9.5
2016-Aug-11 00:26S 25°58' E 013°56'  

Dump ship's entire track history